»·PEaware :: N96621 KRNM-KCRQ

N96621 :: KRNM-KCRQ

FLIGHT INFORMATION

Flight Status: Arrived
Operator: Privately registered:
United States
More flights under this callsign
Pilot: Erce D. (25568)
Aircraft: CESSNA 172 SKYHAWK
(C172)
More flights by this aircraft type
Origin: KRNM Ramona
United States
Destination: KCRQ McClellan-Palomar
United States
More flights between these airports :: More routes between these airports
Route: ROBNN V208 OCN
File this flight plan on PilotEdge
Remarks: ODP FROM RWY 27 KRNM Then ILS24 at KCRQ
Altitude:
(Current/Filed)
5,000ft
Speed:
(Current/Filed)
105kts
Departed: 25-Oct-20 07:59 PM
Arrived: 25-Oct-20 08:30 PM
Distance/Time
Traveled:
19nm/0:30
Distance/Time
To Go:
Arrived

Flight Plot

Page will automatically refresh every two minutes.


Map Options




Map Legend


Flown Route
Filed Route
Departure Airport
Arrival Airport
Navaid (VOR, NDB)
Fix

Horizontal Profiles

Position Reports

Time Latitude Longitude Heading Altitude Ground
Speed
25-Oct-20 19:37 33.039293 -116.908029 275 1390ft 0kts
25-Oct-20 19:38 33.039293 -116.908029 275 1390ft 0kts
25-Oct-20 19:39 33.039293 -116.908029 275 1390ft 0kts
25-Oct-20 19:40 33.039293 -116.908029 275 1390ft 0kts
25-Oct-20 19:41 33.039293 -116.908029 275 1390ft 0kts
25-Oct-20 19:42 33.039293 -116.908029 275 1390ft 0kts
25-Oct-20 19:43 33.039293 -116.908029 275 1390ft 0kts
25-Oct-20 19:44 33.039293 -116.908029 275 1390ft 0kts
25-Oct-20 19:45 33.039293 -116.908029 275 1390ft 0kts
25-Oct-20 19:46 33.039293 -116.908029 275 1390ft 0kts
25-Oct-20 19:47 33.039293 -116.908029 275 1390ft 0kts
25-Oct-20 19:48 33.039293 -116.908029 275 1390ft 0kts
25-Oct-20 19:49 33.039293 -116.908029 275 1390ft 0kts
25-Oct-20 19:50 33.039293 -116.908029 275 1390ft 0kts
25-Oct-20 19:51 33.039293 -116.908029 275 1390ft 0kts
25-Oct-20 19:52 33.039293 -116.908029 275 1390ft 0kts
25-Oct-20 19:53 33.039293 -116.908029 275 1390ft 0kts
25-Oct-20 19:54 33.038451 -116.907264 184 1389ft 0kts
25-Oct-20 19:55 33.038451 -116.907264 184 1389ft 0kts
25-Oct-20 19:56 33.038451 -116.907264 184 1389ft 0kts
25-Oct-20 19:57 33.038451 -116.907264 184 1389ft 0kts
25-Oct-20 19:58 33.038406 -116.910200 279 1392ft 60kts
25-Oct-20 19:59 33.040800 -116.935430 269 2167ft 81kts
25-Oct-20 20:00 33.042297 -116.961666 275 2961ft 87kts
25-Oct-20 20:01 33.044511 -116.990768 276 3726ft 89kts
25-Oct-20 20:02 33.045586 -117.020217 276 4465ft 94kts
25-Oct-20 20:03 33.047990 -117.054481 278 4966ft 109kts
25-Oct-20 20:04 33.064578 -117.080534 341 4970ft 108kts
25-Oct-20 20:05 33.088117 -117.098677 295 4972ft 109kts
25-Oct-20 20:06 33.099950 -117.131524 294 5007ft 108kts
25-Oct-20 20:07 33.113585 -117.163182 302 5029ft 107kts
25-Oct-20 20:08 33.129614 -117.193598 304 5014ft 109kts
25-Oct-20 20:09 33.146821 -117.223161 306 4991ft 108kts
25-Oct-20 20:10 33.162522 -117.253866 300 4988ft 109kts
25-Oct-20 20:11 33.182984 -117.245935 64 5016ft 105kts
25-Oct-20 20:12 33.196066 -117.214318 62 5037ft 107kts
25-Oct-20 20:13 33.208617 -117.182165 65 5066ft 107kts
25-Oct-20 20:14 33.217449 -117.148249 70 5064ft 108kts
25-Oct-20 20:15 33.225226 -117.113886 74 5078ft 107kts
25-Oct-20 20:16 33.232501 -117.078986 76 5072ft 108kts
25-Oct-20 20:17 33.233291 -117.044381 125 4811ft 113kts
25-Oct-20 20:18 33.214651 -117.015557 129 4310ft 110kts
25-Oct-20 20:20 33.189198 -117.021678 225 3792ft 107kts
25-Oct-20 20:21 33.172225 -117.050602 255 3690ft 106kts
25-Oct-20 20:22 33.161073 -117.083057 254 3669ft 107kts
25-Oct-20 20:23 33.153518 -117.116338 263 3438ft 91kts
25-Oct-20 20:24 33.149463 -117.138392 259 3103ft 86kts
25-Oct-20 20:25 33.146393 -117.162257 262 2665ft 89kts
25-Oct-20 20:26 33.141461 -117.193261 263 1835ft 96kts
25-Oct-20 20:27 33.137284 -117.222541 260 1223ft 83kts
25-Oct-20 20:28 33.132781 -117.250029 264 804ft 87kts
25-Oct-20 20:29 33.129072 -117.275107 259 335ft 41kts
25-Oct-20 20:30 33.127449 -117.280211 281 335ft 0kts

Navigation Log

Ident Type
Flight plan parsing failed, navigation log unavailable